createdAt,value
2022-08-27T00:00:58.289Z,7.15
2022-08-27T00:02:01.093Z,6.69
2022-08-27T00:03:05.135Z,6.84
2022-08-27T00:04:10.095Z,7.07
2022-08-27T00:05:14.848Z,7.50
2022-08-27T00:06:22.285Z,7.47
2022-08-27T00:07:24.977Z,7.16
2022-08-27T00:08:27.652Z,8.70
2022-08-27T00:09:33.049Z,7.86
2022-08-27T00:10:38.454Z,8.17
2022-08-27T00:11:41.443Z,7.97
2022-08-27T00:12:47.731Z,8.09
2022-08-27T00:13:50.374Z,8.17
2022-08-27T00:14:56.318Z,7.77
2022-08-27T00:16:00.552Z,7.71
2022-08-27T00:17:04.635Z,7.59
2022-08-27T00:18:07.438Z,6.96
2022-08-27T00:19:09.992Z,7.67
2022-08-27T00:20:15.160Z,7.06
2022-08-27T00:21:18.026Z,8.06
2022-08-27T00:22:20.659Z,6.71
2022-08-27T00:23:23.049Z,7.23
2022-08-27T00:24:27.131Z,6.71
2022-08-27T00:25:29.795Z,6.72
2022-08-27T00:26:32.902Z,6.63
2022-08-27T00:27:35.319Z,7.41
2022-08-27T00:28:37.897Z,6.97
2022-08-27T00:29:40.388Z,6.31
2022-08-27T00:30:43.694Z,6.82
2022-08-27T00:31:46.600Z,7.60
2022-08-27T00:32:50.674Z,6.66
2022-08-27T00:33:53.154Z,6.92
2022-08-27T00:34:56.044Z,6.56
2022-08-27T00:35:59.674Z,7.21
2022-08-27T00:37:03.941Z,6.84
2022-08-27T00:38:11.859Z,6.92
2022-08-27T00:39:14.661Z,6.47
2022-08-27T00:40:20.724Z,6.53
2022-08-27T00:41:23.497Z,6.27
2022-08-27T00:42:31.059Z,6.96
2022-08-27T00:43:48.580Z,6.98
2022-08-27T00:44:51.383Z,7.78
2022-08-27T00:45:57.438Z,6.56
2022-08-27T00:47:05.114Z,6.08
2022-08-27T00:48:10.146Z,6.05
2022-08-27T00:50:55.044Z,6.19
2022-08-27T00:52:04.133Z,6.39
2022-08-27T00:53:21.815Z,6.11
2022-08-27T00:54:26.394Z,6.24
2022-08-27T00:55:32.360Z,6.36
2022-08-27T00:56:40.317Z,5.84
2022-08-27T00:57:43.538Z,5.44
2022-08-27T00:58:49.356Z,5.66
2022-08-27T00:59:51.892Z,6.06
2022-08-27T01:00:55.031Z,5.20
2022-08-27T01:01:59.180Z,5.99
2022-08-27T01:03:02.066Z,6.14
2022-08-27T01:04:05.167Z,5.57
2022-08-27T01:05:13.341Z,6.09
2022-08-27T01:06:20.186Z,5.77
2022-08-27T01:07:25.079Z,5.76
2022-08-27T01:08:33.074Z,5.82
2022-08-27T01:09:37.064Z,6.22
2022-08-27T01:10:41.511Z,5.85
2022-08-27T01:11:46.380Z,6.79
2022-08-27T01:12:53.798Z,5.97
2022-08-27T01:14:00.831Z,6.13
2022-08-27T01:15:00.743Z,6.02
2022-08-27T01:16:05.309Z,6.44
2022-08-27T01:17:09.733Z,6.31
2022-08-27T01:18:13.462Z,6.68
2022-08-27T01:19:28.338Z,5.87
2022-08-27T01:20:43.737Z,6.66
2022-08-27T01:21:52.914Z,6.09
2022-08-27T01:23:24.448Z,6.54
2022-08-27T01:24:47.656Z,6.86
2022-08-27T01:25:51.695Z,6.36
2022-08-27T01:26:54.989Z,6.24
2022-08-27T01:27:59.044Z,5.53
2022-08-27T01:29:02.562Z,5.97
2022-08-27T01:30:07.007Z,6.54
2022-08-27T01:31:11.489Z,6.82
2022-08-27T01:32:17.869Z,6.16
2022-08-27T01:33:21.372Z,6.29
2022-08-27T01:34:23.657Z,6.27
2022-08-27T01:35:26.471Z,6.74
2022-08-27T01:36:30.606Z,6.61
2022-08-27T01:37:33.200Z,6.63
2022-08-27T01:38:35.809Z,5.64
2022-08-27T01:39:40.741Z,5.90
2022-08-27T01:40:44.080Z,6.55
2022-08-27T01:41:48.433Z,6.85
2022-08-27T01:42:55.238Z,5.57
2022-08-27T01:43:57.662Z,6.56
2022-08-27T01:45:05.916Z,6.65
2022-08-27T01:46:09.104Z,6.62
2022-08-27T01:47:11.932Z,6.67
2022-08-27T01:48:16.031Z,6.95
2022-08-27T01:49:18.522Z,6.51
2022-08-27T01:50:25.452Z,7.15
2022-08-27T01:51:28.351Z,6.76
2022-08-27T01:52:30.751Z,6.72
2022-08-27T01:53:33.767Z,6.47
2022-08-27T01:54:36.657Z,6.30
2022-08-27T01:55:41.728Z,6.26
2022-08-27T01:56:46.288Z,7.51
2022-08-27T01:57:49.067Z,6.85
2022-08-27T01:58:51.570Z,6.91
2022-08-27T01:59:54.753Z,6.73
2022-08-27T02:01:03.574Z,6.98
2022-08-27T02:02:08.005Z,6.40
2022-08-27T02:03:12.084Z,7.15
2022-08-27T02:04:14.464Z,7.34
2022-08-27T02:05:17.625Z,7.05
2022-08-27T02:06:21.983Z,7.06
2022-08-27T02:07:24.565Z,6.98
2022-08-27T02:08:27.043Z,6.49
2022-08-27T02:09:29.165Z,6.49
2022-08-27T02:10:35.340Z,7.41
2022-08-27T02:11:44.710Z,6.82
2022-08-27T02:12:42.140Z,7.52
2022-08-27T02:13:44.470Z,6.69
2022-08-27T02:14:46.764Z,6.31
2022-08-27T02:15:49.317Z,6.39
2022-08-27T02:16:53.080Z,6.84
2022-08-27T02:17:55.893Z,6.08
2022-08-27T02:18:59.916Z,6.50
2022-08-27T02:20:03.752Z,6.78
2022-08-27T02:21:06.306Z,6.08
2022-08-27T02:22:08.766Z,6.45
2022-08-27T02:23:12.166Z,6.87
2022-08-27T02:24:14.557Z,7.46
2022-08-27T02:25:17.186Z,7.03
2022-08-27T02:26:20.567Z,7.20
2022-08-27T02:27:22.960Z,7.81
2022-08-27T02:28:25.418Z,6.83
2022-08-27T02:29:27.874Z,6.40
2022-08-27T02:30:32.620Z,6.57
2022-08-27T02:31:35.461Z,6.58
2022-08-27T02:32:38.228Z,7.29
2022-08-27T02:33:40.595Z,6.49
2022-08-27T02:34:43.302Z,7.37
2022-08-27T02:35:45.690Z,6.29
2022-08-27T02:36:48.290Z,6.87
2022-08-27T02:37:51.709Z,6.83
2022-08-27T02:38:54.201Z,6.19
2022-08-27T02:39:58.501Z,7.03
2022-08-27T02:41:02.279Z,6.91
2022-08-27T02:42:05.213Z,6.56
2022-08-27T02:43:08.205Z,6.74
2022-08-27T02:44:11.158Z,6.39
2022-08-27T02:45:17.187Z,6.88
2022-08-27T02:46:20.557Z,6.87
2022-08-27T02:47:23.310Z,6.50
2022-08-27T02:48:25.962Z,6.75
2022-08-27T02:49:29.645Z,6.61
2022-08-27T02:50:32.552Z,6.35
2022-08-27T02:51:36.518Z,6.73
2022-08-27T02:52:38.786Z,6.71
2022-08-27T02:53:41.363Z,7.09
2022-08-27T02:54:44.380Z,7.24
2022-08-27T02:55:47.472Z,7.03
2022-08-27T02:56:51.819Z,6.74
2022-08-27T02:57:54.620Z,6.75
2022-08-27T02:58:57.217Z,6.76
2022-08-27T02:59:59.620Z,6.57
2022-08-27T03:01:02.487Z,6.41
2022-08-27T03:02:05.049Z,6.67
2022-08-27T03:03:09.736Z,7.52
2022-08-27T03:04:13.832Z,6.47
2022-08-27T03:05:17.948Z,6.82
2022-08-27T03:06:20.996Z,7.18
2022-08-27T03:07:23.480Z,7.29
2022-08-27T03:08:27.375Z,6.27
2022-08-27T03:09:31.830Z,6.41
2022-08-27T03:10:34.430Z,7.10
2022-08-27T03:11:36.914Z,6.82
2022-08-27T03:12:40.460Z,6.42
2022-08-27T03:13:42.935Z,7.43
2022-08-27T03:14:45.431Z,7.17
2022-08-27T03:15:48.149Z,6.89
2022-08-27T03:16:52.429Z,6.55
2022-08-27T03:17:54.765Z,6.89
2022-08-27T03:18:57.463Z,7.13
2022-08-27T03:20:00.370Z,6.87
2022-08-27T03:21:02.932Z,6.62
2022-08-27T03:22:05.364Z,6.89
2022-08-27T03:23:12.379Z,6.23
2022-08-27T03:24:14.918Z,6.77
2022-08-27T03:25:17.774Z,6.58
2022-08-27T03:26:20.803Z,7.11
2022-08-27T03:27:24.767Z,6.43
2022-08-27T03:28:30.807Z,5.83
2022-08-27T03:29:35.503Z,7.11
2022-08-27T03:30:38.462Z,6.41
2022-08-27T03:31:40.948Z,6.76
2022-08-27T03:32:43.681Z,6.79
2022-08-27T03:33:46.260Z,7.20
2022-08-27T03:34:48.766Z,6.86
2022-08-27T03:35:52.239Z,7.59
2022-08-27T03:36:54.974Z,6.92
2022-08-27T03:37:57.470Z,6.86
2022-08-27T03:39:00.008Z,6.81
2022-08-27T03:40:04.531Z,7.45
2022-08-27T03:41:07.216Z,6.96
2022-08-27T03:42:09.607Z,6.94
2022-08-27T03:43:13.840Z,6.72
2022-08-27T03:44:21.463Z,6.82
2022-08-27T03:45:20.887Z,6.53
2022-08-27T03:46:25.055Z,6.43
2022-08-27T03:47:27.726Z,6.40
2022-08-27T03:48:31.917Z,6.90
2022-08-27T03:49:35.081Z,7.08
2022-08-27T03:50:42.825Z,6.65
2022-08-27T03:51:45.457Z,6.89
2022-08-27T03:52:48.119Z,7.38
2022-08-27T03:53:51.119Z,6.10
2022-08-27T03:54:53.409Z,6.81
2022-08-27T03:55:55.817Z,7.11
2022-08-27T03:56:58.708Z,7.64
2022-08-27T03:58:01.202Z,6.42
2022-08-27T03:59:04.031Z,7.03
2022-08-27T04:00:08.956Z,7.12
2022-08-27T04:01:11.667Z,7.04
2022-08-27T04:02:14.960Z,6.80
2022-08-27T04:03:17.785Z,6.29
2022-08-27T04:04:20.585Z,7.27
2022-08-27T04:05:23.394Z,7.55
2022-08-27T04:06:27.798Z,7.19
2022-08-27T04:07:30.434Z,6.96
2022-08-27T04:08:32.725Z,6.66
2022-08-27T04:09:35.629Z,6.92
2022-08-27T04:10:41.495Z,6.66
2022-08-27T04:11:44.005Z,6.84
2022-08-27T04:12:46.501Z,7.07
2022-08-27T04:13:49.204Z,6.95
2022-08-27T04:14:51.643Z,6.85
2022-08-27T04:15:54.438Z,7.20
2022-08-27T04:16:58.025Z,7.39
2022-08-27T04:18:00.432Z,7.30
2022-08-27T04:19:04.876Z,7.01
2022-08-27T04:20:34.201Z,7.39
2022-08-27T04:21:14.638Z,7.31
2022-08-27T04:22:17.184Z,7.08
2022-08-27T04:23:19.922Z,7.22
2022-08-27T04:24:22.488Z,7.73
2022-08-27T04:25:24.953Z,6.73
2022-08-27T04:26:28.280Z,6.86
2022-08-27T04:27:30.581Z,7.33
2022-08-27T04:28:38.265Z,7.61
2022-08-27T04:29:38.133Z,6.99
2022-08-27T04:30:44.868Z,7.06
2022-08-27T04:31:47.761Z,7.23
2022-08-27T04:32:50.142Z,7.05
2022-08-27T04:33:52.732Z,7.13
2022-08-27T04:34:56.491Z,7.41
2022-08-27T04:36:02.037Z,6.60
2022-08-27T04:37:04.736Z,7.00
2022-08-27T04:38:07.161Z,7.49
2022-08-27T04:39:09.622Z,6.54
2022-08-27T04:40:12.558Z,7.52
2022-08-27T04:41:15.228Z,7.06
2022-08-27T04:42:19.033Z,7.19
2022-08-27T04:43:21.866Z,7.22
2022-08-27T04:44:29.563Z,8.49
2022-08-27T04:45:31.993Z,6.53
2022-08-27T04:46:39.107Z,6.66
2022-08-27T04:47:41.726Z,7.69
2022-08-27T04:48:43.920Z,6.84
2022-08-27T04:49:46.907Z,6.75
2022-08-27T04:50:50.224Z,6.70
2022-08-27T04:51:53.667Z,6.97
2022-08-27T04:52:56.239Z,6.89
2022-08-27T04:54:00.883Z,7.03
2022-08-27T04:55:03.590Z,7.08
2022-08-27T04:56:06.599Z,7.27
2022-08-27T04:57:10.942Z,7.36
2022-08-27T04:58:13.438Z,8.05
2022-08-27T04:59:18.710Z,7.39
2022-08-27T05:00:22.031Z,7.34
2022-08-27T05:01:28.066Z,7.17
2022-08-27T05:02:30.718Z,7.66
2022-08-27T05:03:34.036Z,7.48
2022-08-27T05:04:38.452Z,7.35
2022-08-27T05:05:42.699Z,6.90
2022-08-27T05:06:46.243Z,7.92
2022-08-27T05:07:48.375Z,6.60
2022-08-27T05:08:54.210Z,7.29
2022-08-27T05:09:56.569Z,6.58
2022-08-27T05:10:59.399Z,7.49
2022-08-27T05:12:02.928Z,7.20
2022-08-27T05:13:05.156Z,6.98
2022-08-27T05:14:09.771Z,7.55
2022-08-27T05:15:12.374Z,6.66
2022-08-27T05:16:19.160Z,7.06
2022-08-27T05:17:21.772Z,7.07
2022-08-27T05:18:24.344Z,6.39
2022-08-27T05:19:27.274Z,6.70
2022-08-27T05:20:31.103Z,6.32
2022-08-27T05:21:34.959Z,6.31
2022-08-27T05:22:37.742Z,7.03
2022-08-27T05:23:40.444Z,6.19
2022-08-27T05:24:45.021Z,6.33
2022-08-27T05:25:48.714Z,6.51
2022-08-27T05:26:52.031Z,6.34
2022-08-27T05:27:54.322Z,6.51
2022-08-27T05:28:58.727Z,6.68
2022-08-27T05:30:01.536Z,6.86
2022-08-27T05:31:07.518Z,7.04
2022-08-27T05:32:10.049Z,6.81
2022-08-27T05:33:15.321Z,7.07
2022-08-27T05:34:22.099Z,7.21
2022-08-27T05:35:22.474Z,6.75
2022-08-27T05:36:29.084Z,6.29
2022-08-27T05:37:32.043Z,7.07
2022-08-27T05:38:35.144Z,6.74
2022-08-27T05:39:37.893Z,5.89
2022-08-27T05:40:40.798Z,6.16
2022-08-27T05:41:43.408Z,6.52
2022-08-27T05:42:46.460Z,6.39
2022-08-27T05:43:51.183Z,6.67
2022-08-27T05:44:53.768Z,7.12
2022-08-27T05:45:56.610Z,6.58
2022-08-27T05:46:59.569Z,6.65
2022-08-27T05:48:02.578Z,5.95
2022-08-27T05:49:06.431Z,6.28
2022-08-27T05:50:09.723Z,6.34
2022-08-27T05:51:22.590Z,6.41
2022-08-27T05:52:22.760Z,6.97
2022-08-27T05:53:25.109Z,6.83
2022-08-27T05:54:27.453Z,6.35
2022-08-27T05:55:30.128Z,6.93
2022-08-27T05:56:36.000Z,5.79
2022-08-27T05:57:38.396Z,6.72
2022-08-27T05:58:41.684Z,6.13
2022-08-27T05:59:44.029Z,7.08
2022-08-27T06:00:46.918Z,5.77
2022-08-27T06:01:51.265Z,6.77
2022-08-27T06:02:54.155Z,7.03
2022-08-27T06:03:56.861Z,7.20
2022-08-27T06:04:59.382Z,6.27
2022-08-27T06:06:08.823Z,5.93
2022-08-27T06:07:11.126Z,6.81
2022-08-27T06:08:13.937Z,6.99
2022-08-27T06:09:19.963Z,6.10
2022-08-27T06:10:22.913Z,6.21
2022-08-27T06:11:25.631Z,5.87
2022-08-27T06:12:28.466Z,7.13
2022-08-27T06:13:32.669Z,7.50
2022-08-27T06:14:36.714Z,6.67
2022-08-27T06:15:39.651Z,6.56
2022-08-27T06:16:42.840Z,7.41
2022-08-27T06:17:47.577Z,7.09
2022-08-27T06:18:50.273Z,7.59
2022-08-27T06:19:52.887Z,7.84
2022-08-27T06:20:56.018Z,7.27
2022-08-27T06:22:00.679Z,7.92
2022-08-27T06:23:02.942Z,7.34
2022-08-27T06:24:06.267Z,7.43
2022-08-27T06:25:11.133Z,7.41
2022-08-27T06:26:16.685Z,7.38
2022-08-27T06:27:19.899Z,7.85
2022-08-27T06:28:23.502Z,6.71
2022-08-27T06:29:26.046Z,8.21
2022-08-27T06:30:28.725Z,7.90
2022-08-27T06:31:33.505Z,7.62
2022-08-27T06:32:36.334Z,8.71
2022-08-27T06:33:39.542Z,7.77
2022-08-27T06:34:41.830Z,8.61
2022-08-27T06:35:46.549Z,7.69
2022-08-27T06:36:49.077Z,7.77
2022-08-27T06:37:53.627Z,7.99
2022-08-27T06:38:56.851Z,7.73
2022-08-27T06:39:59.296Z,7.74
2022-08-27T06:41:07.283Z,8.91
2022-08-27T06:42:12.241Z,9.26
2022-08-27T06:43:14.838Z,9.38
2022-08-27T06:44:17.442Z,8.83
2022-08-27T06:45:20.134Z,9.43
2022-08-27T06:46:26.437Z,9.66
2022-08-27T06:47:32.125Z,9.41
2022-08-27T06:48:34.611Z,9.72
2022-08-27T06:49:39.340Z,10.33
2022-08-27T06:50:42.810Z,9.46
2022-08-27T06:51:47.454Z,10.08
2022-08-27T06:52:49.784Z,10.83
2022-08-27T06:53:58.490Z,9.69
2022-08-27T06:55:01.084Z,10.67
2022-08-27T06:56:03.991Z,12.47
2022-08-27T06:57:06.493Z,11.85
2022-08-27T06:58:08.957Z,12.30
2022-08-27T06:59:14.261Z,12.80
2022-08-27T07:00:18.108Z,12.99
2022-08-27T07:01:26.354Z,13.69
2022-08-27T07:02:32.019Z,13.77
2022-08-27T07:03:36.259Z,15.37
2022-08-27T07:04:38.740Z,15.88
2022-08-27T07:05:41.458Z,13.03
2022-08-27T07:06:45.307Z,13.35
2022-08-27T07:07:48.905Z,15.30
2022-08-27T07:08:53.490Z,15.04
2022-08-27T07:09:57.131Z,14.91
2022-08-27T07:10:59.894Z,13.37
2022-08-27T07:12:04.325Z,12.97
2022-08-27T07:13:06.949Z,11.82
2022-08-27T07:14:09.433Z,11.12
2022-08-27T07:15:11.952Z,9.51
2022-08-27T07:16:23.218Z,9.61
2022-08-27T07:17:25.716Z,8.88
2022-08-27T07:18:28.050Z,8.11
2022-08-27T07:19:30.349Z,8.23
2022-08-27T07:20:33.038Z,7.58
2022-08-27T07:21:37.592Z,8.13
2022-08-27T07:22:41.828Z,8.09
2022-08-27T07:23:49.780Z,8.64
2022-08-27T07:24:52.166Z,8.22
2022-08-27T07:25:54.554Z,7.45
2022-08-27T07:26:57.211Z,8.79
2022-08-27T07:28:00.163Z,7.41
2022-08-27T07:29:04.663Z,7.12
2022-08-27T07:30:10.618Z,7.11
2022-08-27T07:31:15.972Z,6.86
2022-08-27T07:32:18.372Z,7.10
2022-08-27T07:33:28.468Z,7.41
2022-08-27T07:34:30.839Z,7.17
2022-08-27T07:35:35.087Z,7.77
2022-08-27T07:36:38.919Z,7.51
2022-08-27T07:37:41.376Z,6.76
2022-08-27T07:38:43.605Z,7.46
2022-08-27T07:39:51.029Z,7.52
2022-08-27T07:40:55.625Z,6.39
2022-08-27T07:41:58.935Z,5.65
2022-08-27T07:43:01.494Z,5.71
2022-08-27T07:44:03.608Z,4.43
2022-08-27T07:45:07.605Z,5.46
2022-08-27T07:46:10.352Z,5.47
2022-08-27T07:47:12.813Z,4.90
2022-08-27T07:48:15.790Z,5.10
2022-08-27T07:50:29.948Z,5.60
2022-08-27T07:51:33.091Z,5.13
2022-08-27T07:52:35.975Z,4.82
2022-08-27T07:53:38.775Z,4.33
2022-08-27T07:54:41.409Z,4.31
2022-08-27T07:55:46.027Z,4.53
2022-08-27T07:56:55.511Z,3.98
2022-08-27T07:57:58.828Z,4.32
2022-08-27T07:59:04.020Z,4.76
2022-08-27T08:00:12.059Z,6.05
2022-08-27T08:01:18.054Z,4.41
2022-08-27T08:02:20.744Z,5.72
2022-08-27T08:03:25.453Z,5.27
2022-08-27T08:04:27.894Z,4.66
2022-08-27T08:05:30.607Z,4.71
2022-08-27T08:06:37.228Z,5.02
2022-08-27T08:07:39.860Z,4.27
2022-08-27T08:08:47.143Z,4.39
2022-08-27T08:09:50.233Z,4.38
2022-08-27T08:10:59.287Z,3.99
2022-08-27T08:12:05.801Z,5.07
2022-08-27T08:13:09.000Z,4.12
2022-08-27T08:14:11.908Z,4.54
2022-08-27T08:15:14.752Z,3.96
2022-08-27T08:16:18.118Z,3.98
2022-08-27T08:17:20.854Z,4.01
2022-08-27T08:18:23.405Z,4.19
2022-08-27T08:19:26.122Z,4.13
2022-08-27T08:20:54.150Z,4.58
2022-08-27T08:21:36.499Z,4.63
2022-08-27T08:22:39.387Z,4.01
2022-08-27T08:23:45.301Z,4.06
2022-08-27T08:24:47.822Z,3.91
2022-08-27T08:25:50.451Z,3.77
2022-08-27T08:26:53.017Z,3.87
2022-08-27T08:27:55.402Z,3.65
2022-08-27T08:28:58.072Z,3.81
2022-08-27T08:30:00.812Z,3.78
2022-08-27T08:31:05.105Z,3.93
2022-08-27T08:32:08.489Z,4.06
2022-08-27T08:33:11.094Z,3.69
2022-08-27T08:34:14.171Z,3.71
2022-08-27T08:35:18.275Z,3.86
2022-08-27T08:36:22.516Z,4.03
2022-08-27T08:37:26.053Z,3.91
2022-08-27T08:38:28.612Z,3.34
2022-08-27T08:39:32.761Z,3.43
2022-08-27T08:40:41.729Z,3.26
2022-08-27T08:43:02.563Z,3.19
2022-08-27T08:44:08.685Z,3.65
2022-08-27T08:45:17.453Z,4.01
2022-08-27T08:46:39.167Z,3.86
2022-08-27T08:47:57.488Z,3.41
2022-08-27T08:49:04.043Z,4.09
2022-08-27T08:50:20.092Z,4.10
2022-08-27T08:51:32.259Z,3.52
2022-08-27T08:52:46.524Z,3.96
2022-08-27T08:54:02.070Z,3.68
2022-08-27T08:55:14.312Z,4.00
2022-08-27T08:56:25.032Z,4.46
2022-08-27T08:57:34.357Z,3.74
2022-08-27T09:00:03.176Z,4.36
2022-08-27T09:01:10.388Z,3.56
2022-08-27T09:02:15.150Z,3.54
2022-08-27T09:03:20.491Z,4.11
2022-08-27T09:04:25.469Z,3.48
2022-08-27T09:05:28.427Z,3.99
2022-08-27T09:06:53.806Z,4.15
2022-08-27T09:08:34.221Z,4.00
2022-08-27T09:09:27.170Z,3.82
2022-08-27T09:10:54.122Z,4.46
2022-08-27T09:12:03.330Z,4.20
2022-08-27T09:13:09.197Z,4.33
2022-08-27T09:14:36.453Z,3.84
2022-08-27T09:15:40.902Z,3.84
2022-08-27T09:16:43.980Z,3.82
2022-08-27T09:17:46.715Z,4.20
2022-08-27T09:18:52.586Z,3.54
2022-08-27T09:19:55.558Z,4.04
2022-08-27T09:21:08.891Z,3.43
2022-08-27T09:22:37.409Z,3.77
2022-08-27T09:23:55.616Z,4.51
2022-08-27T09:25:10.647Z,4.12
2022-08-27T09:26:19.211Z,3.63
2022-08-27T09:27:26.204Z,4.07
2022-08-27T09:28:29.761Z,4.23
2022-08-27T09:29:32.142Z,4.20
2022-08-27T09:30:38.361Z,3.67
2022-08-27T09:31:43.298Z,3.98
2022-08-27T09:32:47.923Z,4.54
2022-08-27T09:33:56.511Z,3.44
2022-08-27T09:35:00.537Z,4.38
2022-08-27T09:36:06.537Z,4.44
2022-08-27T09:37:18.476Z,5.01
2022-08-27T09:38:27.138Z,5.62
2022-08-27T09:39:44.702Z,4.38
2022-08-27T09:40:51.236Z,4.57
2022-08-27T09:41:54.976Z,4.59
2022-08-27T09:43:06.933Z,4.37
2022-08-27T09:44:14.537Z,5.28
2022-08-27T09:45:20.868Z,6.42
2022-08-27T09:46:25.471Z,6.24
2022-08-27T09:47:29.854Z,4.89
2022-08-27T09:48:34.933Z,4.95
2022-08-27T09:49:37.419Z,4.81
2022-08-27T09:50:44.114Z,6.90
2022-08-27T09:51:47.653Z,5.23
2022-08-27T09:52:56.122Z,5.34
2022-08-27T09:54:02.722Z,5.71
2022-08-27T09:55:06.544Z,5.11
2022-08-27T09:56:12.765Z,5.10
2022-08-27T09:57:18.826Z,5.53
2022-08-27T09:58:46.302Z,5.29
2022-08-27T09:59:54.563Z,5.75
2022-08-27T10:01:19.182Z,5.63
2022-08-27T10:02:24.828Z,4.80
2022-08-27T10:03:31.372Z,4.86
2022-08-27T10:04:51.872Z,5.88
2022-08-27T10:05:56.969Z,4.48
2022-08-27T10:07:03.171Z,4.12
2022-08-27T10:08:12.340Z,3.97
2022-08-27T10:09:33.462Z,4.85
2022-08-27T10:10:55.884Z,5.81
2022-08-27T10:12:06.903Z,5.06
2022-08-27T10:13:16.047Z,4.54
2022-08-27T10:14:28.138Z,3.89
2022-08-27T10:15:49.742Z,4.85
2022-08-27T10:16:59.018Z,5.42
2022-08-27T10:18:14.401Z,4.21
2022-08-27T10:19:26.220Z,4.31
2022-08-27T10:20:44.440Z,4.87
2022-08-27T10:21:54.519Z,4.12
2022-08-27T10:23:09.877Z,5.63
2022-08-27T10:24:27.911Z,5.01
2022-08-27T10:25:47.301Z,4.48
2022-08-27T10:27:26.849Z,4.43
2022-08-27T10:29:04.909Z,3.78
2022-08-27T10:30:13.932Z,6.42
2022-08-27T10:31:20.205Z,5.43
2022-08-27T10:32:32.343Z,5.97
2022-08-27T10:34:03.467Z,4.97
2022-08-27T10:35:10.627Z,4.59
2022-08-27T10:36:36.182Z,4.84
2022-08-27T10:37:51.335Z,4.35
2022-08-27T10:39:25.402Z,4.76
2022-08-27T10:40:32.546Z,4.45
2022-08-27T10:41:42.043Z,4.31
2022-08-27T10:42:57.816Z,4.52
2022-08-27T10:44:04.025Z,4.81
2022-08-27T10:46:57.663Z,4.78
2022-08-27T10:48:09.833Z,3.72
2022-08-27T10:49:22.310Z,4.24
2022-08-27T10:50:44.234Z,4.86
2022-08-27T10:52:06.480Z,4.42
2022-08-27T10:53:13.893Z,5.84
2022-08-27T10:54:22.967Z,5.67
2022-08-27T10:55:31.832Z,4.85
2022-08-27T10:57:00.099Z,4.65
2022-08-27T10:58:16.353Z,3.72
2022-08-27T10:59:43.762Z,3.77
2022-08-27T11:01:08.422Z,6.27
2022-08-27T11:02:34.443Z,5.27
2022-08-27T11:03:58.908Z,3.76
2022-08-27T11:05:08.523Z,3.64
2022-08-27T11:07:37.515Z,5.06
2022-08-27T11:08:46.852Z,6.85
2022-08-27T11:09:58.947Z,4.53
2022-08-27T11:12:03.362Z,3.14
2022-08-27T11:12:29.728Z,3.73
2022-08-27T11:13:44.829Z,3.83
2022-08-27T11:14:50.796Z,3.36
2022-08-27T11:15:54.684Z,3.27
2022-08-27T11:18:44.388Z,3.54
2022-08-27T11:19:56.135Z,4.92
2022-08-27T11:21:08.908Z,3.96
2022-08-27T11:23:56.144Z,3.88
2022-08-27T11:25:23.715Z,3.68
2022-08-27T11:26:30.320Z,4.18
2022-08-27T11:27:34.459Z,4.40
2022-08-27T11:28:50.021Z,3.69
2022-08-27T11:30:00.234Z,4.78
2022-08-27T11:31:04.642Z,3.28
2022-08-27T11:32:19.692Z,3.74
2022-08-27T11:33:37.206Z,3.28
2022-08-27T11:34:52.214Z,2.84
2022-08-27T11:36:01.299Z,2.87
2022-08-27T11:37:35.150Z,2.82
2022-08-27T11:38:56.553Z,2.68
2022-08-27T11:40:05.484Z,3.61
2022-08-27T11:41:33.350Z,4.67
2022-08-27T11:42:53.327Z,3.09
2022-08-27T11:43:59.489Z,3.15
2022-08-27T11:45:24.075Z,3.39
2022-08-27T11:46:30.087Z,3.12
2022-08-27T11:47:32.800Z,2.96
2022-08-27T11:48:43.156Z,3.11
2022-08-27T11:49:52.159Z,2.93
2022-08-27T11:51:01.714Z,2.94
2022-08-27T11:52:08.884Z,3.14
2022-08-27T11:53:11.428Z,3.15
2022-08-27T11:54:29.594Z,3.00
2022-08-27T11:56:45.859Z,3.84
2022-08-27T11:57:51.632Z,4.28
2022-08-27T11:58:54.330Z,4.59
2022-08-27T11:59:57.350Z,4.15
2022-08-27T12:01:04.538Z,4.64
2022-08-27T12:02:25.145Z,4.83
2022-08-27T12:03:31.136Z,6.18
2022-08-27T12:04:37.469Z,6.28
2022-08-27T12:05:49.376Z,4.82
2022-08-27T12:07:17.264Z,4.36
2022-08-27T12:08:26.282Z,4.49
2022-08-27T12:09:31.496Z,4.15
2022-08-27T12:10:57.534Z,4.23
2022-08-27T12:12:09.707Z,5.26
2022-08-27T12:13:18.460Z,5.47
2022-08-27T12:14:30.736Z,5.33
2022-08-27T12:15:52.396Z,6.75
2022-08-27T12:17:26.300Z,6.93
2022-08-27T12:18:38.429Z,4.94
2022-08-27T12:20:18.297Z,4.71
2022-08-27T12:21:51.875Z,5.84
2022-08-27T12:24:38.590Z,6.38
2022-08-27T12:25:41.408Z,3.65
2022-08-27T12:26:56.542Z,4.01
2022-08-27T12:28:02.003Z,3.07
2022-08-27T12:29:27.713Z,2.63
2022-08-27T12:30:39.791Z,2.88
2022-08-27T12:31:48.042Z,2.92
2022-08-27T12:32:51.534Z,3.53
2022-08-27T12:33:54.364Z,3.25
2022-08-27T12:35:03.536Z,3.76
2022-08-27T12:36:17.505Z,3.02
2022-08-27T12:37:25.073Z,2.94
2022-08-27T12:38:33.759Z,2.87
2022-08-27T12:39:39.788Z,3.06
2022-08-27T12:40:52.211Z,3.06
2022-08-27T12:42:01.529Z,4.12
2022-08-27T12:43:10.743Z,3.62
2022-08-27T12:44:25.782Z,3.87
2022-08-27T12:45:28.373Z,4.04
2022-08-27T12:46:31.380Z,3.07
2022-08-27T12:47:37.371Z,3.17
2022-08-27T12:48:46.448Z,3.35
2022-08-27T12:50:01.381Z,3.18
2022-08-27T12:51:12.295Z,3.00
2022-08-27T12:52:27.950Z,3.82
2022-08-27T12:53:36.936Z,3.63
2022-08-27T12:55:02.348Z,2.93
2022-08-27T12:56:45.339Z,3.22
2022-08-27T12:58:15.337Z,3.86
2022-08-27T12:59:47.773Z,3.24
2022-08-27T13:01:07.302Z,3.28
2022-08-27T13:03:49.086Z,3.47
2022-08-27T13:04:52.228Z,3.00
2022-08-27T13:05:54.835Z,3.15
2022-08-27T13:06:57.365Z,3.52
2022-08-27T13:07:59.929Z,2.80
2022-08-27T13:09:07.964Z,2.79
2022-08-27T13:10:17.349Z,3.03
2022-08-27T13:11:23.235Z,2.74
2022-08-27T13:12:25.827Z,2.59
2022-08-27T13:13:28.426Z,3.27
2022-08-27T13:14:37.085Z,3.24
2022-08-27T13:15:48.758Z,3.07
2022-08-27T13:17:00.995Z,3.04
2022-08-27T13:18:05.701Z,2.98
2022-08-27T13:19:12.039Z,3.21
2022-08-27T13:20:18.342Z,3.13
2022-08-27T13:21:31.014Z,3.38
2022-08-27T13:22:39.381Z,3.20
2022-08-27T13:23:49.423Z,2.79
2022-08-27T13:24:54.956Z,2.82
2022-08-27T13:27:19.853Z,3.23
2022-08-27T13:28:25.760Z,2.63
2022-08-27T13:29:28.706Z,3.57
2022-08-27T13:30:36.159Z,3.61
2022-08-27T13:31:37.420Z,3.32
2022-08-27T13:32:42.380Z,3.74
2022-08-27T13:33:45.396Z,2.94
2022-08-27T13:34:48.783Z,3.54
2022-08-27T13:35:53.406Z,3.79
2022-08-27T13:36:59.352Z,3.33
2022-08-27T13:38:07.598Z,2.68
2022-08-27T13:39:13.867Z,3.91
2022-08-27T13:40:30.335Z,2.58
2022-08-27T13:41:36.203Z,2.90
2022-08-27T13:42:42.605Z,2.57
2022-08-27T13:43:47.535Z,2.42
2022-08-27T13:44:52.767Z,2.50
2022-08-27T13:45:55.935Z,2.89
2022-08-27T13:47:08.928Z,2.71
2022-08-27T13:49:20.078Z,2.95
2022-08-27T13:50:26.991Z,2.55
2022-08-27T13:51:32.663Z,3.05
2022-08-27T13:52:41.031Z,2.69
2022-08-27T13:53:47.381Z,2.67
2022-08-27T13:54:54.977Z,2.51
2022-08-27T13:55:59.759Z,2.64
2022-08-27T13:57:08.802Z,2.72
2022-08-27T13:58:14.656Z,2.56
2022-08-27T13:59:23.592Z,2.44
2022-08-27T14:00:32.724Z,2.67
2022-08-27T14:01:35.962Z,2.42
2022-08-27T14:02:40.900Z,2.74
2022-08-27T14:03:53.039Z,4.30
2022-08-27T14:05:17.022Z,2.68
2022-08-27T14:06:41.460Z,3.64
2022-08-27T14:07:49.754Z,3.61
2022-08-27T14:08:55.337Z,4.07
2022-08-27T14:10:20.598Z,3.94
2022-08-27T14:11:25.807Z,3.64
2022-08-27T14:12:34.405Z,3.77
2022-08-27T14:13:46.286Z,3.58
2022-08-27T14:14:49.016Z,3.40
2022-08-27T14:15:54.387Z,4.06
2022-08-27T14:17:00.281Z,3.37
2022-08-27T14:18:05.761Z,3.33
2022-08-27T14:19:23.983Z,3.56
2022-08-27T14:20:29.040Z,3.22
2022-08-27T14:21:32.866Z,3.43
2022-08-27T14:22:35.467Z,3.55
2022-08-27T14:23:38.175Z,2.99
2022-08-27T14:24:41.789Z,3.33
2022-08-27T14:25:44.834Z,3.26
2022-08-27T14:26:52.742Z,3.28
2022-08-27T14:27:57.191Z,3.89
2022-08-27T14:29:00.228Z,3.06
2022-08-27T14:30:05.051Z,2.71
2022-08-27T14:31:08.014Z,3.21
2022-08-27T14:32:12.011Z,3.06
2022-08-27T14:33:14.698Z,3.24
2022-08-27T14:34:19.424Z,3.69
2022-08-27T14:35:27.715Z,3.12
2022-08-27T14:36:32.463Z,3.58
2022-08-27T14:37:36.388Z,3.52
2022-08-27T14:38:41.662Z,3.60
2022-08-27T14:39:44.948Z,3.19
2022-08-27T14:40:51.507Z,3.24
2022-08-27T14:41:55.010Z,3.94
2022-08-27T14:42:57.815Z,3.37
2022-08-27T14:44:01.551Z,3.31
2022-08-27T14:45:06.081Z,3.17
2022-08-27T14:46:12.458Z,3.21
2022-08-27T14:47:15.715Z,3.10
2022-08-27T14:48:21.997Z,3.46
2022-08-27T14:49:32.826Z,2.91
2022-08-27T14:51:48.753Z,3.47
2022-08-27T14:52:51.199Z,3.34
2022-08-27T14:53:54.932Z,4.16
2022-08-27T14:54:57.635Z,3.12
2022-08-27T14:56:00.278Z,2.86
2022-08-27T14:57:03.762Z,3.06
2022-08-27T14:58:06.474Z,3.14
2022-08-27T14:59:09.042Z,2.86
2022-08-27T15:00:13.359Z,3.13
2022-08-27T15:01:17.701Z,3.28
2022-08-27T15:02:20.843Z,3.85
2022-08-27T15:03:23.752Z,4.81
2022-08-27T15:04:27.389Z,4.83